ANA82 RJCC-RJTT
Flight info
| Callsign | ANA82 |
|---|---|
| Flight time | 1h 27m |
| Altitude | 38000 |
| Route | TOBBY Y10 GODIN |
| Aircraft | B77W/H-SDE1E2E3FGHIJ2J3J4J5M1RWXY/LB1D1 |
Departure
| Time | 2026-05-04 12:14 |
|---|---|
| Airport | New Chitose Airport (RJCC) |
Arrival
| Time | 2026-05-04 13:42 |
|---|---|
| Airport | Tokyo Haneda International Airport (RJTT) |
| Time | Latitude | Longitude | Altitude | Speed | Heading |
|---|---|---|---|---|---|
| 2026-05-04 11:36 | 42.78907 | 141.68223 | 96 ft | 0 kts | 240° |
| 2026-05-04 12:03 | 42.78908 | 141.68226 | 92 ft | 2 kts | 240° |
| 2026-05-04 12:03 | 42.78917 | 141.68245 | 95 ft | 2 kts | 233° |
| 2026-05-04 12:03 | 42.78928 | 141.68262 | 92 ft | 2 kts | 225° |
| 2026-05-04 12:04 | 42.78940 | 141.68276 | 95 ft | 2 kts | 213° |
| 2026-05-04 12:04 | 42.78954 | 141.68287 | 94 ft | 2 kts | 197° |
| 2026-05-04 12:04 | 42.78970 | 141.68291 | 95 ft | 2 kts | 177° |
| 2026-05-04 12:04 | 42.78986 | 141.68287 | 95 ft | 2 kts | 158° |
| 2026-05-04 12:05 | 42.78999 | 141.68279 | 93 ft | 1 kts | 143° |
| 2026-05-04 12:05 | 42.79001 | 141.68276 | 92 ft | 0 kts | 139° |
| 2026-05-04 12:06 | 42.78997 | 141.68281 | 93 ft | 2 kts | 139° |
| 2026-05-04 12:06 | 42.78979 | 141.68303 | 94 ft | 5 kts | 140° |
| 2026-05-04 12:06 | 42.78943 | 141.68339 | 94 ft | 8 kts | 147° |
| 2026-05-04 12:06 | 42.78888 | 141.68376 | 96 ft | 10 kts | 158° |
| 2026-05-04 12:07 | 42.78819 | 141.68428 | 96 ft | 12 kts | 135° |
| 2026-05-04 12:07 | 42.78790 | 141.68541 | 93 ft | 13 kts | 100° |
| 2026-05-04 12:07 | 42.78732 | 141.68603 | 93 ft | 12 kts | 174° |
| 2026-05-04 12:07 | 42.78627 | 141.68621 | 94 ft | 21 kts | 172° |
| 2026-05-04 12:08 | 42.78426 | 141.68659 | 93 ft | 35 kts | 172° |
| 2026-05-04 12:08 | 42.78183 | 141.68699 | 91 ft | 35 kts | 173° |
| 2026-05-04 12:08 | 42.77947 | 141.68739 | 90 ft | 34 kts | 172° |
| 2026-05-04 12:08 | 42.77729 | 141.68780 | 89 ft | 30 kts | 172° |
| 2026-05-04 12:09 | 42.77535 | 141.68815 | 88 ft | 25 kts | 172° |
| 2026-05-04 12:09 | 42.77362 | 141.68849 | 86 ft | 25 kts | 173° |
| 2026-05-04 12:09 | 42.77189 | 141.68876 | 87 ft | 25 kts | 174° |
| 2026-05-04 12:09 | 42.77015 | 141.68905 | 83 ft | 25 kts | 172° |
| 2026-05-04 12:10 | 42.76842 | 141.68935 | 71 ft | 25 kts | 173° |
| 2026-05-04 12:10 | 42.76670 | 141.68964 | 67 ft | 25 kts | 172° |
| 2026-05-04 12:10 | 42.76497 | 141.68996 | 70 ft | 25 kts | 172° |
| 2026-05-04 12:10 | 42.76325 | 141.69026 | 64 ft | 22 kts | 173° |
| 2026-05-04 12:11 | 42.76216 | 141.69052 | 66 ft | 15 kts | 157° |
| 2026-05-04 12:11 | 42.76177 | 141.69169 | 66 ft | 15 kts | 84° |
| 2026-05-04 12:11 | 42.76241 | 141.69254 | 63 ft | 11 kts | 355° |
| 2026-05-04 12:11 | 42.76245 | 141.69253 | 65 ft | 0 kts | 355° |
| 2026-05-04 12:12 | 42.76308 | 141.69246 | 63 ft | 45 kts | 355° |
| 2026-05-04 12:13 | 42.77041 | 141.69120 | 93 ft | 166 kts | 352° |
| 2026-05-04 12:14 | 42.85810 | 141.76106 | 10029 ft | 305 kts | 89° |
| 2026-05-04 12:15 | 42.85330 | 141.78954 | 10016 ft | 313 kts | 120° |
| 2026-05-04 12:15 | 42.83963 | 141.81217 | 10039 ft | 309 kts | 147° |
| 2026-05-04 12:15 | 42.82070 | 141.82505 | 10040 ft | 302 kts | 172° |
| 2026-05-04 12:15 | 42.80021 | 141.82695 | 10029 ft | 291 kts | 193° |
| 2026-05-04 12:16 | 42.78101 | 141.81984 | 10033 ft | 282 kts | 211° |
| 2026-05-04 12:16 | 42.76686 | 141.80294 | 10033 ft | 264 kts | 250° |
| 2026-05-04 12:16 | 42.76307 | 141.77974 | 10017 ft | 256 kts | 263° |
| 2026-05-04 12:16 | 42.75747 | 141.75542 | 10025 ft | 275 kts | 245° |
| 2026-05-04 12:17 | 42.74619 | 141.73483 | 10025 ft | 275 kts | 225° |
| 2026-05-04 12:17 | 42.73131 | 141.71873 | 10014 ft | 272 kts | 223° |
| 2026-05-04 12:17 | 42.71613 | 141.70302 | 10028 ft | 276 kts | 220° |
| 2026-05-04 12:17 | 42.70558 | 141.69335 | 10018 ft | 276 kts | 214° |
| 2026-05-04 12:18 | 42.68013 | 141.68634 | 10032 ft | 293 kts | 179° |
| 2026-05-04 12:18 | 42.65958 | 141.68926 | 10046 ft | 299 kts | 180° |
| 2026-05-04 12:18 | 42.63875 | 141.69169 | 10395 ft | 300 kts | 181° |
| 2026-05-04 12:18 | 42.61779 | 141.69387 | 10798 ft | 309 kts | 180° |
| 2026-05-04 12:19 | 42.60309 | 141.69528 | 11021 ft | 330 kts | 180° |
| 2026-05-04 12:19 | 42.57904 | 141.69754 | 11035 ft | 355 kts | 181° |
| 2026-05-04 12:19 | 42.55429 | 141.69986 | 11036 ft | 358 kts | 181° |
| 2026-05-04 12:19 | 42.52930 | 141.70231 | 11039 ft | 361 kts | 181° |
| 2026-05-04 12:20 | 42.50428 | 141.70478 | 11025 ft | 360 kts | 180° |
| 2026-05-04 12:20 | 42.47928 | 141.70723 | 11018 ft | 359 kts | 180° |
| 2026-05-04 12:20 | 42.45433 | 141.70968 | 11018 ft | 359 kts | 181° |
| 2026-05-04 12:20 | 42.42946 | 141.71201 | 11018 ft | 358 kts | 180° |
| 2026-05-04 12:21 | 42.40457 | 141.71440 | 11021 ft | 358 kts | 181° |
| 2026-05-04 12:21 | 42.37970 | 141.71666 | 11019 ft | 358 kts | 181° |
| 2026-05-04 12:21 | 42.35486 | 141.71894 | 11019 ft | 358 kts | 180° |
| 2026-05-04 12:21 | 42.32990 | 141.72130 | 11024 ft | 373 kts | 181° |
| 2026-05-04 12:22 | 42.30355 | 141.72373 | 11028 ft | 384 kts | 180° |
| 2026-05-04 12:22 | 42.27677 | 141.72625 | 11026 ft | 387 kts | 180° |
| 2026-05-04 12:22 | 42.24994 | 141.72882 | 11021 ft | 386 kts | 180° |
| 2026-05-04 12:22 | 42.22317 | 141.73139 | 11017 ft | 386 kts | 180° |
| 2026-05-04 12:23 | 42.19641 | 141.73394 | 11020 ft | 385 kts | 180° |
| 2026-05-04 12:23 | 42.16966 | 141.73648 | 11021 ft | 384 kts | 180° |
| 2026-05-04 12:23 | 42.14306 | 141.73900 | 11027 ft | 382 kts | 181° |
| 2026-05-04 12:23 | 42.11656 | 141.74149 | 11023 ft | 381 kts | 181° |
| 2026-05-04 12:24 | 42.09013 | 141.74399 | 11023 ft | 381 kts | 181° |
| 2026-05-04 12:24 | 42.06369 | 141.74647 | 11024 ft | 380 kts | 181° |
| 2026-05-04 12:24 | 42.03765 | 141.74891 | 11006 ft | 379 kts | 181° |
| 2026-05-04 12:24 | 42.01103 | 141.75138 | 11022 ft | 386 kts | 181° |
| 2026-05-04 12:25 | 41.98412 | 141.75387 | 11025 ft | 388 kts | 182° |
| 2026-05-04 12:25 | 41.95718 | 141.75639 | 11034 ft | 387 kts | 181° |
| 2026-05-04 12:25 | 41.93028 | 141.75892 | 11040 ft | 385 kts | 183° |
| 2026-05-04 12:25 | 41.90356 | 141.76141 | 11029 ft | 384 kts | 183° |
| 2026-05-04 12:26 | 41.87693 | 141.76394 | 11026 ft | 383 kts | 183° |
| 2026-05-04 12:26 | 41.85075 | 141.76647 | 11036 ft | 381 kts | 181° |
| 2026-05-04 12:26 | 41.82428 | 141.76898 | 11037 ft | 380 kts | 181° |
| 2026-05-04 12:26 | 41.79792 | 141.77146 | 11042 ft | 380 kts | 183° |
| 2026-05-04 12:27 | 41.77152 | 141.77394 | 11039 ft | 379 kts | 183° |
| 2026-05-04 12:27 | 41.74511 | 141.77639 | 11028 ft | 379 kts | 182° |
| 2026-05-04 12:27 | 41.71863 | 141.77882 | 11038 ft | 382 kts | 182° |
| 2026-05-04 12:27 | 41.69206 | 141.78130 | 11050 ft | 384 kts | 182° |
| 2026-05-04 12:28 | 41.66535 | 141.78381 | 11045 ft | 384 kts | 182° |
| 2026-05-04 12:28 | 41.63875 | 141.78631 | 11046 ft | 383 kts | 182° |
| 2026-05-04 12:28 | 41.61210 | 141.78882 | 11056 ft | 383 kts | 182° |
| 2026-05-04 12:28 | 41.58580 | 141.79127 | 11076 ft | 387 kts | 182° |
| 2026-05-04 12:29 | 41.55791 | 141.79378 | 11407 ft | 412 kts | 182° |
| 2026-05-04 12:29 | 41.52883 | 141.79614 | 12248 ft | 420 kts | 184° |
| 2026-05-04 12:29 | 41.50005 | 141.79477 | 13742 ft | 406 kts | 191° |
| 2026-05-04 12:29 | 41.47228 | 141.78970 | 14966 ft | 404 kts | 197° |
| 2026-05-04 12:30 | 41.44508 | 141.78087 | 16034 ft | 403 kts | 199° |
| 2026-05-04 12:30 | 41.41802 | 141.77178 | 17386 ft | 399 kts | 199° |
| 2026-05-04 12:30 | 41.39110 | 141.76281 | 18531 ft | 398 kts | 199° |
| 2026-05-04 12:30 | 41.36451 | 141.75400 | 19598 ft | 397 kts | 199° |
| 2026-05-04 12:31 | 41.33757 | 141.74514 | 20502 ft | 401 kts | 198° |
| 2026-05-04 12:31 | 41.31035 | 141.73622 | 21374 ft | 405 kts | 198° |
| 2026-05-04 12:31 | 41.28342 | 141.72748 | 22879 ft | 391 kts | 199° |
| 2026-05-04 12:31 | 41.25721 | 141.71903 | 23969 ft | 386 kts | 200° |
| 2026-05-04 12:32 | 41.23102 | 141.71054 | 24720 ft | 389 kts | 200° |
| 2026-05-04 12:32 | 41.17781 | 141.69318 | 25869 ft | 399 kts | 200° |
| 2026-05-04 12:32 | 41.15083 | 141.68444 | 26653 ft | 398 kts | 200° |
| 2026-05-04 12:33 | 41.12393 | 141.67576 | 27466 ft | 397 kts | 200° |
| 2026-05-04 12:33 | 41.09714 | 141.66713 | 28204 ft | 396 kts | 200° |
| 2026-05-04 12:33 | 41.07028 | 141.65846 | 28805 ft | 397 kts | 201° |
| 2026-05-04 12:33 | 41.04368 | 141.64990 | 29761 ft | 388 kts | 201° |
| 2026-05-04 12:34 | 41.01756 | 141.64153 | 30327 ft | 387 kts | 201° |
| 2026-05-04 12:34 | 40.96381 | 141.62409 | 30529 ft | 404 kts | 201° |
| 2026-05-04 12:34 | 40.93638 | 141.61524 | 30805 ft | 407 kts | 201° |
| 2026-05-04 12:35 | 40.90928 | 141.60656 | 31254 ft | 404 kts | 201° |
| 2026-05-04 12:35 | 40.88203 | 141.59787 | 31780 ft | 401 kts | 201° |
| 2026-05-04 12:35 | 40.85496 | 141.58924 | 32295 ft | 398 kts | 201° |
| 2026-05-04 12:35 | 40.82799 | 141.58063 | 32683 ft | 395 kts | 201° |
| 2026-05-04 12:36 | 40.80250 | 141.57266 | 34303 ft | 362 kts | 202° |
| 2026-05-04 12:36 | 40.77818 | 141.56500 | 34869 ft | 361 kts | 202° |
| 2026-05-04 12:36 | 40.75341 | 141.55697 | 34842 ft | 370 kts | 202° |
| 2026-05-04 12:37 | 40.70271 | 141.54052 | 35092 ft | 381 kts | 202° |
| 2026-05-04 12:37 | 40.67690 | 141.53225 | 35390 ft | 382 kts | 202° |
| 2026-05-04 12:37 | 40.65107 | 141.52403 | 35920 ft | 379 kts | 202° |
| 2026-05-04 12:37 | 40.62571 | 141.51604 | 36663 ft | 370 kts | 202° |
| 2026-05-04 12:38 | 40.60086 | 141.50821 | 37359 ft | 364 kts | 202° |
| 2026-05-04 12:38 | 40.57623 | 141.50039 | 37672 ft | 366 kts | 203° |
| 2026-05-04 12:38 | 40.55128 | 141.49239 | 37637 ft | 372 kts | 202° |
| 2026-05-04 12:39 | 40.50060 | 141.47618 | 37655 ft | 382 kts | 202° |
| 2026-05-04 12:39 | 40.44836 | 141.45957 | 37645 ft | 390 kts | 202° |
| 2026-05-04 12:40 | 40.39512 | 141.44279 | 37637 ft | 395 kts | 202° |
| 2026-05-04 12:40 | 40.34147 | 141.42589 | 37599 ft | 396 kts | 202° |
| 2026-05-04 12:41 | 40.28781 | 141.40903 | 37638 ft | 396 kts | 202° |
| 2026-05-04 12:41 | 40.23464 | 141.39230 | 37643 ft | 395 kts | 202° |
| 2026-05-04 12:42 | 40.18126 | 141.37555 | 37666 ft | 393 kts | 202° |
| 2026-05-04 12:42 | 40.12814 | 141.35885 | 37642 ft | 392 kts | 202° |
| 2026-05-04 12:43 | 40.07495 | 141.34219 | 37653 ft | 393 kts | 202° |
| 2026-05-04 12:43 | 40.02198 | 141.32569 | 37682 ft | 395 kts | 202° |
| 2026-05-04 12:44 | 39.96853 | 141.30857 | 37688 ft | 396 kts | 203° |
| 2026-05-04 12:44 | 39.91500 | 141.29089 | 37708 ft | 397 kts | 202° |
| 2026-05-04 12:45 | 39.86142 | 141.27332 | 37680 ft | 397 kts | 203° |
| 2026-05-04 12:45 | 39.80774 | 141.25577 | 37711 ft | 397 kts | 203° |
| 2026-05-04 12:46 | 39.75445 | 141.23835 | 37728 ft | 397 kts | 203° |
| 2026-05-04 12:46 | 39.70086 | 141.22093 | 37711 ft | 396 kts | 203° |
| 2026-05-04 12:47 | 39.64754 | 141.20357 | 37703 ft | 393 kts | 204° |
| 2026-05-04 12:47 | 39.59450 | 141.18633 | 37723 ft | 391 kts | 204° |
| 2026-05-04 12:48 | 39.54176 | 141.16922 | 37736 ft | 389 kts | 204° |
| 2026-05-04 12:48 | 39.48927 | 141.15220 | 37740 ft | 388 kts | 203° |
| 2026-05-04 12:49 | 39.43705 | 141.13532 | 37755 ft | 389 kts | 203° |
| 2026-05-04 12:49 | 39.38425 | 141.11895 | 37749 ft | 391 kts | 203° |
| 2026-05-04 12:50 | 39.33120 | 141.10304 | 37759 ft | 391 kts | 203° |
| 2026-05-04 12:50 | 39.27819 | 141.08710 | 37764 ft | 391 kts | 202° |
| 2026-05-04 12:51 | 39.22539 | 141.07118 | 37762 ft | 392 kts | 202° |
| 2026-05-04 12:51 | 39.17223 | 141.05517 | 37775 ft | 391 kts | 204° |
| 2026-05-04 12:52 | 39.11934 | 141.03929 | 37759 ft | 388 kts | 204° |
| 2026-05-04 12:52 | 39.06700 | 141.02356 | 37763 ft | 385 kts | 202° |
| 2026-05-04 12:53 | 39.01527 | 141.00802 | 37771 ft | 384 kts | 202° |
| 2026-05-04 12:53 | 38.96315 | 140.99237 | 37789 ft | 384 kts | 204° |
| 2026-05-04 12:54 | 38.91102 | 140.97678 | 37722 ft | 384 kts | 204° |
| 2026-05-04 12:54 | 38.85915 | 140.96128 | 37777 ft | 383 kts | 203° |
| 2026-05-04 12:55 | 38.80718 | 140.94577 | 37777 ft | 383 kts | 203° |
| 2026-05-04 12:55 | 38.75520 | 140.93028 | 37793 ft | 384 kts | 205° |
| 2026-05-04 12:56 | 38.70339 | 140.91485 | 37724 ft | 385 kts | 204° |
| 2026-05-04 12:56 | 38.65124 | 140.89937 | 37777 ft | 384 kts | 204° |
| 2026-05-04 12:57 | 38.59929 | 140.88395 | 37791 ft | 383 kts | 204° |
| 2026-05-04 12:57 | 38.54735 | 140.86858 | 37810 ft | 383 kts | 204° |
| 2026-05-04 12:58 | 38.49552 | 140.85334 | 37798 ft | 386 kts | 204° |
| 2026-05-04 12:58 | 38.44287 | 140.83793 | 37805 ft | 389 kts | 204° |
| 2026-05-04 12:59 | 38.38985 | 140.82243 | 37806 ft | 392 kts | 204° |
| 2026-05-04 12:59 | 38.33651 | 140.80686 | 37728 ft | 393 kts | 204° |
| 2026-05-04 13:00 | 38.28317 | 140.79133 | 37793 ft | 392 kts | 204° |
| 2026-05-04 13:00 | 38.22993 | 140.77582 | 37814 ft | 393 kts | 204° |
| 2026-05-04 13:01 | 38.17686 | 140.76024 | 37724 ft | 393 kts | 204° |
| 2026-05-04 13:01 | 38.12356 | 140.74452 | 37664 ft | 393 kts | 204° |
| 2026-05-04 13:02 | 38.07026 | 140.72899 | 37737 ft | 392 kts | 204° |
| 2026-05-04 13:02 | 38.01710 | 140.71348 | 37761 ft | 391 kts | 204° |
| 2026-05-04 13:03 | 37.96428 | 140.69802 | 37818 ft | 391 kts | 204° |
| 2026-05-04 13:03 | 37.91124 | 140.68252 | 37788 ft | 390 kts | 204° |
| 2026-05-04 13:04 | 37.85833 | 140.66710 | 37821 ft | 390 kts | 204° |
| 2026-05-04 13:04 | 37.80524 | 140.65163 | 37827 ft | 391 kts | 204° |
| 2026-05-04 13:05 | 37.75261 | 140.63633 | 37837 ft | 391 kts | 204° |
| 2026-05-04 13:05 | 37.69952 | 140.62108 | 37760 ft | 391 kts | 204° |
| 2026-05-04 13:06 | 37.64579 | 140.60555 | 37824 ft | 400 kts | 204° |
| 2026-05-04 13:06 | 37.59139 | 140.58994 | 37851 ft | 405 kts | 204° |
| 2026-05-04 13:07 | 37.53623 | 140.57419 | 37837 ft | 406 kts | 204° |
| 2026-05-04 13:07 | 37.49038 | 140.56108 | 37803 ft | 405 kts | 204° |
| 2026-05-04 13:08 | 37.43553 | 140.54545 | 37836 ft | 403 kts | 204° |
| 2026-05-04 13:08 | 37.37208 | 140.52735 | 37842 ft | 401 kts | 204° |
| 2026-05-04 13:09 | 37.32652 | 140.51436 | 37853 ft | 401 kts | 204° |
| 2026-05-04 13:09 | 37.27209 | 140.49886 | 37787 ft | 400 kts | 204° |
| 2026-05-04 13:10 | 37.21871 | 140.48363 | 37792 ft | 391 kts | 204° |
| 2026-05-04 13:10 | 37.16609 | 140.46853 | 37733 ft | 386 kts | 204° |
| 2026-05-04 13:10 | 37.13992 | 140.46110 | 37446 ft | 386 kts | 204° |
| 2026-05-04 13:11 | 37.11368 | 140.45368 | 36789 ft | 387 kts | 204° |
| 2026-05-04 13:11 | 37.08738 | 140.44626 | 36131 ft | 385 kts | 204° |
| 2026-05-04 13:11 | 37.06134 | 140.43891 | 35414 ft | 382 kts | 203° |
| 2026-05-04 13:11 | 37.03543 | 140.43160 | 34766 ft | 379 kts | 203° |
| 2026-05-04 13:12 | 37.00982 | 140.42439 | 34136 ft | 376 kts | 203° |
| 2026-05-04 13:12 | 36.98436 | 140.41728 | 33525 ft | 372 kts | 204° |
| 2026-05-04 13:12 | 36.95916 | 140.41019 | 32824 ft | 369 kts | 204° |
| 2026-05-04 13:12 | 36.93416 | 140.40309 | 32136 ft | 367 kts | 204° |
| 2026-05-04 13:13 | 36.90933 | 140.39607 | 31462 ft | 365 kts | 204° |
| 2026-05-04 13:13 | 36.88460 | 140.38914 | 30829 ft | 363 kts | 204° |
| 2026-05-04 13:13 | 36.86025 | 140.38242 | 30126 ft | 362 kts | 204° |
| 2026-05-04 13:13 | 36.83566 | 140.37556 | 29390 ft | 361 kts | 204° |
| 2026-05-04 13:14 | 36.81114 | 140.36878 | 28699 ft | 358 kts | 204° |
| 2026-05-04 13:14 | 36.78684 | 140.36192 | 28001 ft | 356 kts | 204° |
| 2026-05-04 13:14 | 36.76264 | 140.35519 | 27320 ft | 355 kts | 204° |
| 2026-05-04 13:14 | 36.73845 | 140.34876 | 26637 ft | 357 kts | 202° |
| 2026-05-04 13:15 | 36.71386 | 140.34375 | 25998 ft | 358 kts | 200° |
| 2026-05-04 13:15 | 36.68928 | 140.33884 | 25378 ft | 358 kts | 201° |
| 2026-05-04 13:15 | 36.66494 | 140.33392 | 24763 ft | 358 kts | 201° |
| 2026-05-04 13:15 | 36.64032 | 140.32887 | 24100 ft | 358 kts | 201° |
| 2026-05-04 13:16 | 36.61570 | 140.32392 | 23510 ft | 358 kts | 201° |
| 2026-05-04 13:16 | 36.59108 | 140.31897 | 22815 ft | 358 kts | 200° |
| 2026-05-04 13:16 | 36.56651 | 140.31402 | 22111 ft | 358 kts | 200° |
| 2026-05-04 13:16 | 36.54191 | 140.30908 | 21435 ft | 357 kts | 200° |
| 2026-05-04 13:17 | 36.51733 | 140.30415 | 20760 ft | 357 kts | 200° |
| 2026-05-04 13:17 | 36.49280 | 140.29924 | 20109 ft | 357 kts | 199° |
| 2026-05-04 13:17 | 36.46829 | 140.29431 | 19465 ft | 357 kts | 199° |
| 2026-05-04 13:17 | 36.44380 | 140.28938 | 18812 ft | 356 kts | 199° |
| 2026-05-04 13:18 | 36.41963 | 140.28450 | 18203 ft | 356 kts | 199° |
| 2026-05-04 13:18 | 36.39509 | 140.27960 | 17512 ft | 357 kts | 198° |
| 2026-05-04 13:18 | 36.37054 | 140.27473 | 16810 ft | 357 kts | 198° |
| 2026-05-04 13:18 | 36.34606 | 140.26989 | 16134 ft | 357 kts | 198° |
| 2026-05-04 13:19 | 36.32151 | 140.26503 | 15467 ft | 357 kts | 197° |
| 2026-05-04 13:19 | 36.29694 | 140.26016 | 14814 ft | 357 kts | 198° |
| 2026-05-04 13:19 | 36.27248 | 140.25524 | 14143 ft | 356 kts | 197° |
| 2026-05-04 13:19 | 36.24832 | 140.25046 | 13546 ft | 355 kts | 196° |
| 2026-05-04 13:20 | 36.22428 | 140.24583 | 13006 ft | 334 kts | 196° |
| 2026-05-04 13:20 | 36.20235 | 140.24166 | 12779 ft | 306 kts | 197° |
| 2026-05-04 13:20 | 36.18148 | 140.23753 | 12785 ft | 303 kts | 197° |
| 2026-05-04 13:20 | 36.16059 | 140.23328 | 12822 ft | 306 kts | 197° |
| 2026-05-04 13:21 | 36.13952 | 140.22902 | 12825 ft | 306 kts | 197° |
| 2026-05-04 13:21 | 36.11852 | 140.22482 | 12824 ft | 305 kts | 197° |
| 2026-05-04 13:21 | 36.09754 | 140.22064 | 12813 ft | 305 kts | 197° |
| 2026-05-04 13:21 | 36.07657 | 140.21647 | 12817 ft | 305 kts | 197° |
| 2026-05-04 13:22 | 36.05594 | 140.21239 | 12742 ft | 302 kts | 197° |
| 2026-05-04 13:22 | 36.03516 | 140.20827 | 12502 ft | 303 kts | 197° |
| 2026-05-04 13:22 | 36.01423 | 140.20418 | 12021 ft | 307 kts | 195° |
| 2026-05-04 13:22 | 35.99290 | 140.20085 | 11354 ft | 307 kts | 193° |
| 2026-05-04 13:23 | 35.97179 | 140.19799 | 11178 ft | 305 kts | 193° |
| 2026-05-04 13:23 | 35.95075 | 140.19518 | 10921 ft | 304 kts | 193° |
| 2026-05-04 13:23 | 35.92952 | 140.19220 | 10340 ft | 307 kts | 191° |
| 2026-05-04 13:23 | 35.90844 | 140.18934 | 10123 ft | 304 kts | 191° |
| 2026-05-04 13:24 | 35.88746 | 140.18646 | 10011 ft | 303 kts | 191° |
| 2026-05-04 13:24 | 35.86643 | 140.18354 | 9581 ft | 304 kts | 191° |
| 2026-05-04 13:24 | 35.84574 | 140.18068 | 9040 ft | 294 kts | 191° |
| 2026-05-04 13:25 | 35.80464 | 140.17490 | 8047 ft | 300 kts | 191° |
| 2026-05-04 13:25 | 35.78422 | 140.17202 | 7746 ft | 296 kts | 191° |
| 2026-05-04 13:25 | 35.76383 | 140.16917 | 7483 ft | 292 kts | 191° |
| 2026-05-04 13:25 | 35.74376 | 140.16636 | 7230 ft | 288 kts | 191° |
| 2026-05-04 13:26 | 35.72404 | 140.16359 | 6969 ft | 284 kts | 191° |
| 2026-05-04 13:26 | 35.70452 | 140.16085 | 6735 ft | 280 kts | 191° |
| 2026-05-04 13:26 | 35.68524 | 140.15813 | 6476 ft | 278 kts | 191° |
| 2026-05-04 13:26 | 35.66614 | 140.15543 | 6234 ft | 275 kts | 191° |
| 2026-05-04 13:27 | 35.64720 | 140.15276 | 5974 ft | 272 kts | 191° |
| 2026-05-04 13:27 | 35.62846 | 140.15013 | 5696 ft | 270 kts | 191° |
| 2026-05-04 13:27 | 35.60993 | 140.14753 | 5428 ft | 267 kts | 191° |
| 2026-05-04 13:27 | 35.59154 | 140.14494 | 5174 ft | 264 kts | 191° |
| 2026-05-04 13:28 | 35.57366 | 140.14243 | 4942 ft | 259 kts | 191° |
| 2026-05-04 13:28 | 35.55608 | 140.13998 | 4747 ft | 251 kts | 191° |
| 2026-05-04 13:28 | 35.53884 | 140.13756 | 4493 ft | 247 kts | 192° |
| 2026-05-04 13:28 | 35.52185 | 140.13518 | 4226 ft | 244 kts | 192° |
| 2026-05-04 13:29 | 35.50514 | 140.13285 | 4059 ft | 236 kts | 192° |
| 2026-05-04 13:29 | 35.48925 | 140.13065 | 3986 ft | 223 kts | 193° |
| 2026-05-04 13:29 | 35.47382 | 140.12847 | 4001 ft | 225 kts | 193° |
| 2026-05-04 13:29 | 35.45821 | 140.12625 | 3996 ft | 226 kts | 193° |
| 2026-05-04 13:30 | 35.44263 | 140.12406 | 3981 ft | 224 kts | 193° |
| 2026-05-04 13:30 | 35.42716 | 140.12188 | 3998 ft | 223 kts | 193° |
| 2026-05-04 13:30 | 35.41196 | 140.11975 | 3997 ft | 222 kts | 193° |
| 2026-05-04 13:30 | 35.39670 | 140.11762 | 3993 ft | 219 kts | 193° |
| 2026-05-04 13:31 | 35.38146 | 140.11547 | 4002 ft | 221 kts | 192° |
| 2026-05-04 13:31 | 35.36612 | 140.11334 | 3997 ft | 220 kts | 192° |
| 2026-05-04 13:31 | 35.35097 | 140.11129 | 3989 ft | 218 kts | 192° |
| 2026-05-04 13:31 | 35.33583 | 140.10921 | 3998 ft | 221 kts | 193° |
| 2026-05-04 13:32 | 35.32039 | 140.10696 | 4012 ft | 224 kts | 193° |
| 2026-05-04 13:32 | 35.30527 | 140.10451 | 3961 ft | 216 kts | 204° |
| 2026-05-04 13:32 | 35.29294 | 140.09579 | 3994 ft | 200 kts | 234° |
| 2026-05-04 13:32 | 35.28486 | 140.08231 | 4013 ft | 198 kts | 247° |
| 2026-05-04 13:33 | 35.27791 | 140.06753 | 4007 ft | 203 kts | 249° |
| 2026-05-04 13:33 | 35.27092 | 140.05256 | 3996 ft | 200 kts | 249° |
| 2026-05-04 13:33 | 35.26677 | 140.03740 | 3995 ft | 179 kts | 278° |
| 2026-05-04 13:33 | 35.26955 | 140.02316 | 4009 ft | 171 kts | 300° |
| 2026-05-04 13:34 | 35.27526 | 140.01032 | 4010 ft | 177 kts | 303° |
| 2026-05-04 13:34 | 35.28147 | 139.99714 | 4005 ft | 178 kts | 303° |
| 2026-05-04 13:34 | 35.28943 | 139.98615 | 4013 ft | 172 kts | 322° |
| 2026-05-04 13:34 | 35.29920 | 139.97749 | 4003 ft | 174 kts | 325° |
| 2026-05-04 13:35 | 35.30917 | 139.96944 | 3987 ft | 165 kts | 327° |
| 2026-05-04 13:35 | 35.32966 | 139.95425 | 3992 ft | 175 kts | 330° |
| 2026-05-04 13:35 | 35.34014 | 139.94675 | 3999 ft | 174 kts | 330° |
| 2026-05-04 13:36 | 35.35046 | 139.93942 | 4012 ft | 171 kts | 328° |
| 2026-05-04 13:36 | 35.36050 | 139.93231 | 3996 ft | 164 kts | 327° |
| 2026-05-04 13:36 | 35.37051 | 139.92519 | 3805 ft | 168 kts | 327° |
| 2026-05-04 13:36 | 35.38055 | 139.91807 | 3592 ft | 165 kts | 328° |
| 2026-05-04 13:37 | 35.39035 | 139.91113 | 3387 ft | 161 kts | 328° |
| 2026-05-04 13:37 | 35.40006 | 139.90425 | 3167 ft | 161 kts | 328° |
| 2026-05-04 13:37 | 35.40970 | 139.89742 | 2964 ft | 160 kts | 328° |
| 2026-05-04 13:37 | 35.41606 | 139.89291 | 2820 ft | 159 kts | 329° |
| 2026-05-04 13:38 | 35.42872 | 139.88393 | 2540 ft | 155 kts | 330° |
| 2026-05-04 13:38 | 35.43805 | 139.87732 | 2347 ft | 154 kts | 330° |
| 2026-05-04 13:38 | 35.44715 | 139.87086 | 2135 ft | 152 kts | 330° |
| 2026-05-04 13:38 | 35.45626 | 139.86439 | 1925 ft | 148 kts | 330° |
| 2026-05-04 13:39 | 35.46501 | 139.85818 | 1725 ft | 145 kts | 330° |
| 2026-05-04 13:39 | 35.47384 | 139.85191 | 1536 ft | 148 kts | 331° |
| 2026-05-04 13:39 | 35.48280 | 139.84555 | 1326 ft | 149 kts | 331° |
| 2026-05-04 13:39 | 35.49179 | 139.83916 | 1126 ft | 149 kts | 331° |
| 2026-05-04 13:40 | 35.50071 | 139.83283 | 944 ft | 147 kts | 331° |
| 2026-05-04 13:40 | 35.50966 | 139.82647 | 768 ft | 153 kts | 330° |
| 2026-05-04 13:40 | 35.51924 | 139.81967 | 596 ft | 159 kts | 332° |
| 2026-05-04 13:40 | 35.52830 | 139.81322 | 385 ft | 147 kts | 332° |
| 2026-05-04 13:41 | 35.53717 | 139.80692 | 226 ft | 150 kts | 331° |
| 2026-05-04 13:41 | 35.54608 | 139.80035 | 31 ft | 146 kts | 332° |
| 2026-05-04 13:41 | 35.55363 | 139.79523 | 29 ft | 93 kts | 329° |
| 2026-05-04 13:42 | 35.55777 | 139.79228 | 29 ft | 17 kts | 332° |
| 2026-05-04 13:42 | 35.55923 | 139.79131 | 29 ft | 29 kts | 330° |
| 2026-05-04 13:42 | 35.56100 | 139.78947 | 28 ft | 34 kts | 304° |
| 2026-05-04 13:42 | 35.56138 | 139.78819 | 28 ft | 12 kts | 264° |
| 2026-05-04 13:43 | 35.56135 | 139.78804 | 28 ft | 0 kts | 257° |
| 2026-05-04 13:43 | 35.56133 | 139.78784 | 28 ft | 11 kts | 265° |
| 2026-05-04 13:43 | 35.56229 | 139.78648 | 28 ft | 33 kts | 336° |
| 2026-05-04 13:44 | 35.56372 | 139.78543 | 28 ft | 6 kts | 296° |
| 2026-05-04 13:44 | 35.56374 | 139.78476 | 28 ft | 10 kts | 257° |
| 2026-05-04 13:44 | 35.56337 | 139.78380 | 28 ft | 15 kts | 230° |
| 2026-05-04 13:44 | 35.56285 | 139.78259 | 28 ft | 18 kts | 233° |
| 2026-05-04 13:45 | 35.56186 | 139.78281 | 28 ft | 20 kts | 123° |
| 2026-05-04 13:45 | 35.56070 | 139.78406 | 28 ft | 25 kts | 150° |
| 2026-05-04 13:45 | 35.55901 | 139.78521 | 29 ft | 31 kts | 150° |
| 2026-05-04 13:45 | 35.55702 | 139.78663 | 29 ft | 34 kts | 143° |
| 2026-05-04 13:46 | 35.55678 | 139.78872 | 29 ft | 21 kts | 111° |
| 2026-05-04 13:46 | 35.55572 | 139.78995 | 28 ft | 21 kts | 149° |
| 2026-05-04 13:46 | 35.55443 | 139.79085 | 28 ft | 21 kts | 155° |
| 2026-05-04 13:46 | 35.55308 | 139.79165 | 29 ft | 22 kts | 168° |
| 2026-05-04 13:47 | 35.55211 | 139.79056 | 29 ft | 17 kts | 233° |
| 2026-05-04 13:47 | 35.55174 | 139.78982 | 29 ft | 3 kts | 240° |
| 2026-05-04 13:47 | 35.55163 | 139.78958 | 29 ft | 2 kts | 240° |
| 2026-05-04 13:47 | 35.55162 | 139.78957 | 29 ft | 0 kts | 240° |